sensor_id;sensor_type;location;lat;lon;timestamp;pressure;altitude;pressure_sealevel;temperature;humidity
44481;BME280;30184;42.018;23.670;2023-03-13T00:01:38;91588.38;;;-0.94;77.57
44481;BME280;30184;42.018;23.670;2023-03-13T00:04:08;91588.72;;;-0.95;77.57
44481;BME280;30184;42.018;23.670;2023-03-13T00:06:38;91592.09;;;-0.98;77.59
44481;BME280;30184;42.018;23.670;2023-03-13T00:09:10;91594.00;;;-0.99;77.46
44481;BME280;30184;42.018;23.670;2023-03-13T00:11:39;91592.03;;;-1.02;77.55
44481;BME280;30184;42.018;23.670;2023-03-13T00:14:09;91589.75;;;-1.03;77.65
44481;BME280;30184;42.018;23.670;2023-03-13T00:16:40;91570.34;;;-1.27;77.70
44481;BME280;30184;42.018;23.670;2023-03-13T00:19:10;91594.66;;;-1.05;77.62
44481;BME280;30184;42.018;23.670;2023-03-13T00:21:39;91567.09;;;-1.17;77.83
44481;BME280;30184;42.018;23.670;2023-03-13T00:24:10;91591.94;;;-1.09;77.89
44481;BME280;30184;42.018;23.670;2023-03-13T00:26:39;91593.44;;;-1.11;77.81
44481;BME280;30184;42.018;23.670;2023-03-13T00:29:08;91598.22;;;-1.21;77.60
44481;BME280;30184;42.018;23.670;2023-03-13T00:31:39;91593.72;;;-1.17;77.74
44481;BME280;30184;42.018;23.670;2023-03-13T00:34:09;91596.72;;;-1.18;77.88
44481;BME280;30184;42.018;23.670;2023-03-13T00:36:38;91600.13;;;-1.21;77.83
44481;BME280;30184;42.018;23.670;2023-03-13T00:39:08;91502.88;;;-1.83;77.88
44481;BME280;30184;42.018;23.670;2023-03-13T00:41:37;91597.81;;;-1.23;78.03
44481;BME280;30184;42.018;23.670;2023-03-13T00:44:07;91598.16;;;-1.24;78.31
44481;BME280;30184;42.018;23.670;2023-03-13T00:46:36;91588.88;;;-1.34;78.29
44481;BME280;30184;42.018;23.670;2023-03-13T00:49:07;91533.09;;;-1.72;78.40
44481;BME280;30184;42.018;23.670;2023-03-13T00:51:36;91597.69;;;-1.30;78.53
44481;BME280;30184;42.018;23.670;2023-03-13T00:54:06;91595.03;;;-1.30;78.72
44481;BME280;30184;42.018;23.670;2023-03-13T00:56:35;91594.63;;;-1.32;78.86
44481;BME280;30184;42.018;23.670;2023-03-13T00:59:04;91591.19;;;-1.32;78.87
44481;BME280;30184;42.018;23.670;2023-03-13T01:01:35;91590.75;;;-1.34;78.50
44481;BME280;30184;42.018;23.670;2023-03-13T01:04:07;91600.94;;;-1.40;78.31
44481;BME280;30184;42.018;23.670;2023-03-13T01:06:39;91598.56;;;-1.45;78.51
44481;BME280;30184;42.018;23.670;2023-03-13T01:09:14;91425.41;;;-2.70;78.47
44481;BME280;30184;42.018;23.670;2023-03-13T01:11:44;91606.34;;;-1.56;78.52
44481;BME280;30184;42.018;23.670;2023-03-13T01:14:15;91535.56;;;-2.06;78.52
44481;BME280;30184;42.018;23.670;2023-03-13T01:16:45;91582.81;;;-1.76;78.97
44481;BME280;30184;42.018;23.670;2023-03-13T01:19:16;91597.00;;;-1.69;79.28
44481;BME280;30184;42.018;23.670;2023-03-13T01:21:46;91506.19;;;-2.32;79.38
44481;BME280;30184;42.018;23.670;2023-03-13T01:24:16;91608.53;;;-1.61;79.45
44481;BME280;30184;42.018;23.670;2023-03-13T01:26:47;91509.59;;;-2.32;79.32
44481;BME280;30184;42.018;23.670;2023-03-13T01:29:16;91619.13;;;-1.65;79.53
44481;BME280;30184;42.018;23.670;2023-03-13T01:31:46;91614.91;;;-1.66;79.42
44481;BME280;30184;42.018;23.670;2023-03-13T01:34:17;91550.31;;;-2.08;79.28
44481;BME280;30184;42.018;23.670;2023-03-13T01:36:46;91604.03;;;-1.80;79.44
44481;BME280;30184;42.018;23.670;2023-03-13T01:39:18;91485.72;;;-2.51;79.39
44481;BME280;30184;42.018;23.670;2023-03-13T01:41:47;91595.63;;;-1.82;79.75
44481;BME280;30184;42.018;23.670;2023-03-13T01:44:21;91524.31;;;-2.38;79.69
44481;BME280;30184;42.018;23.670;2023-03-13T01:46:52;91616.97;;;-1.78;79.76
44481;BME280;30184;42.018;23.670;2023-03-13T01:49:28;91625.31;;;-1.80;79.68
44481;BME280;30184;42.018;23.670;2023-03-13T01:52:12;91571.44;;;-2.35;79.57
44481;BME280;30184;42.018;23.670;2023-03-13T01:54:51;91634.69;;;-1.86;79.70
44481;BME280;30184;42.018;23.670;2023-03-13T01:57:26;91625.19;;;-1.87;80.47
44481;BME280;30184;42.018;23.670;2023-03-13T01:59:59;91625.94;;;-1.86;80.44
44481;BME280;30184;42.018;23.670;2023-03-13T02:02:41;91506.69;;;-2.65;80.47
44481;BME280;30184;42.018;23.670;2023-03-13T02:05:14;91618.31;;;-1.88;80.30
44481;BME280;30184;42.018;23.670;2023-03-13T02:07:48;91622.44;;;-1.91;80.08
44481;BME280;30184;42.018;23.670;2023-03-13T02:10:18;91626.22;;;-1.92;80.03
44481;BME280;30184;42.018;23.670;2023-03-13T02:12:49;91645.94;;;-1.93;80.42
44481;BME280;30184;42.018;23.670;2023-03-13T02:15:22;91642.88;;;-1.95;80.41
44481;BME280;30184;42.018;23.670;2023-03-13T02:17:53;91565.47;;;-2.47;80.70
44481;BME280;30184;42.018;23.670;2023-03-13T02:20:25;91646.34;;;-2.10;80.67
44481;BME280;30184;42.018;23.670;2023-03-13T02:22:59;91647.81;;;-2.12;80.87
44481;BME280;30184;42.018;23.670;2023-03-13T02:25:38;91639.28;;;-2.02;80.88
44481;BME280;30184;42.018;23.670;2023-03-13T02:28:13;91643.84;;;-2.03;81.33
44481;BME280;30184;42.018;23.670;2023-03-13T02:30:44;91639.63;;;-2.04;81.43
44481;BME280;30184;42.018;23.670;2023-03-13T02:33:15;91614.31;;;-2.36;81.56
44481;BME280;30184;42.018;23.670;2023-03-13T02:35:46;91638.81;;;-2.08;81.47
44481;BME280;30184;42.018;23.670;2023-03-13T02:38:21;91676.38;;;-2.09;81.45
44481;BME280;30184;42.018;23.670;2023-03-13T02:40:54;91656.56;;;-2.12;80.97
44481;BME280;30184;42.018;23.670;2023-03-13T02:43:28;91652.38;;;-2.13;80.75
44481;BME280;30184;42.018;23.670;2023-03-13T02:46:01;91594.84;;;-2.59;80.39
44481;BME280;30184;42.018;23.670;2023-03-13T02:48:34;91667.84;;;-2.18;80.45
44481;BME280;30184;42.018;23.670;2023-03-13T02:51:09;91666.63;;;-2.21;80.63
44481;BME280;30184;42.018;23.670;2023-03-13T02:53:40;91666.22;;;-2.23;80.66
44481;BME280;30184;42.018;23.670;2023-03-13T02:56:14;91681.41;;;-2.23;80.78
44481;BME280;30184;42.018;23.670;2023-03-13T02:58:45;91676.69;;;-2.30;80.59
44481;BME280;30184;42.018;23.670;2023-03-13T03:01:19;91688.72;;;-2.36;80.61
44481;BME280;30184;42.018;23.670;2023-03-13T03:03:49;91762.38;;;-2.52;80.60
44481;BME280;30184;42.018;23.670;2023-03-13T03:06:18;91691.31;;;-2.55;80.53
44481;BME280;30184;42.018;23.670;2023-03-13T03:08:49;91694.59;;;-2.62;80.79
44481;BME280;30184;42.018;23.670;2023-03-13T03:11:20;91699.97;;;-2.58;80.79
44481;BME280;30184;42.018;23.670;2023-03-13T03:13:55;91702.81;;;-2.51;81.06
44481;BME280;30184;42.018;23.670;2023-03-13T03:16:26;91710.78;;;-2.51;81.17
44481;BME280;30184;42.018;23.670;2023-03-13T03:18:56;91720.28;;;-2.50;81.30
44481;BME280;30184;42.018;23.670;2023-03-13T03:21:26;91707.69;;;-2.53;81.40
44481;BME280;30184;42.018;23.670;2023-03-13T03:23:55;91716.00;;;-2.55;81.24
44481;BME280;30184;42.018;23.670;2023-03-13T03:26:27;91717.09;;;-2.56;81.31
44481;BME280;30184;42.018;23.670;2023-03-13T03:28:56;91720.97;;;-2.53;81.63
44481;BME280;30184;42.018;23.670;2023-03-13T03:31:25;91632.44;;;-3.08;81.28
44481;BME280;30184;42.018;23.670;2023-03-13T03:33:56;91767.94;;;-2.57;80.88
44481;BME280;30184;42.018;23.670;2023-03-13T03:36:25;91722.00;;;-2.58;80.93
44481;BME280;30184;42.018;23.670;2023-03-13T03:38:55;91775.50;;;-2.59;81.03
44481;BME280;30184;42.018;23.670;2023-03-13T03:41:27;91732.22;;;-2.91;82.38
44481;BME280;30184;42.018;23.670;2023-03-13T03:43:57;91746.06;;;-2.67;82.25
44481;BME280;30184;42.018;23.670;2023-03-13T03:46:35;91752.94;;;-2.66;82.34
44481;BME280;30184;42.018;23.670;2023-03-13T03:49:04;91761.69;;;-2.65;81.93
44481;BME280;30184;42.018;23.670;2023-03-13T03:51:34;91716.09;;;-2.98;82.11
44481;BME280;30184;42.018;23.670;2023-03-13T03:54:04;91790.88;;;-2.81;82.43
44481;BME280;30184;42.018;23.670;2023-03-13T03:56:36;91764.22;;;-2.69;82.61
44481;BME280;30184;42.018;23.670;2023-03-13T03:59:05;91758.50;;;-2.71;82.57
44481;BME280;30184;42.018;23.670;2023-03-13T04:01:55;91755.09;;;-2.71;82.84
44481;BME280;30184;42.018;23.670;2023-03-13T04:04:26;91751.66;;;-2.72;82.78
44481;BME280;30184;42.018;23.670;2023-03-13T04:07:11;91731.34;;;-2.95;82.45
44481;BME280;30184;42.018;23.670;2023-03-13T04:09:40;91774.69;;;-2.76;82.32
44481;BME280;30184;42.018;23.670;2023-03-13T04:12:19;91789.69;;;-2.83;81.51
44481;BME280;30184;42.018;23.670;2023-03-13T04:14:51;91789.34;;;-2.97;81.73
44481;BME280;30184;42.018;23.670;2023-03-13T04:17:21;91822.63;;;-3.00;81.85
44481;BME280;30184;42.018;23.670;2023-03-13T04:19:50;91790.63;;;-2.91;81.87
44481;BME280;30184;42.018;23.670;2023-03-13T04:22:20;91790.94;;;-2.93;82.08
44481;BME280;30184;42.018;23.670;2023-03-13T04:24:55;91748.84;;;-3.22;82.43
44481;BME280;30184;42.018;23.670;2023-03-13T04:27:26;91793.50;;;-2.96;82.38
44481;BME280;30184;42.018;23.670;2023-03-13T04:29:56;91796.53;;;-2.98;82.31
44481;BME280;30184;42.018;23.670;2023-03-13T04:32:43;91754.09;;;-3.26;81.89
44481;BME280;30184;42.018;23.670;2023-03-13T04:35:25;91714.88;;;-3.60;81.84
44481;BME280;30184;42.018;23.670;2023-03-13T04:38:07;91765.63;;;-3.34;82.02
44481;BME280;30184;42.018;23.670;2023-03-13T04:40:49;91818.75;;;-3.03;82.02
44481;BME280;30184;42.018;23.670;2023-03-13T04:43:38;91823.75;;;-3.01;82.18
44481;BME280;30184;42.018;23.670;2023-03-13T04:46:34;91701.47;;;-3.80;82.15
44481;BME280;30184;42.018;23.670;2023-03-13T04:49:25;91824.19;;;-2.99;82.29
44481;BME280;30184;42.018;23.670;2023-03-13T04:52:18;91813.38;;;-3.06;82.63
44481;BME280;30184;42.018;23.670;2023-03-13T04:54:59;91835.25;;;-2.97;82.87
44481;BME280;30184;42.018;23.670;2023-03-13T04:57:55;91827.28;;;-2.97;82.32
44481;BME280;30184;42.018;23.670;2023-03-13T05:00:51;91768.50;;;-3.39;81.96
44481;BME280;30184;42.018;23.670;2023-03-13T05:03:32;91836.69;;;-2.99;81.67
44481;BME280;30184;42.018;23.670;2023-03-13T05:06:15;91889.22;;;-3.05;81.88
44481;BME280;30184;42.018;23.670;2023-03-13T05:09:04;91836.41;;;-2.94;82.42
44481;BME280;30184;42.018;23.670;2023-03-13T05:11:56;91842.44;;;-2.97;81.70
44481;BME280;30184;42.018;23.670;2023-03-13T05:14:45;91852.06;;;-3.05;81.02
44481;BME280;30184;42.018;23.670;2023-03-13T05:17:33;91853.19;;;-3.06;80.98
44481;BME280;30184;42.018;23.670;2023-03-13T05:20:20;91870.75;;;-3.02;81.43
44481;BME280;30184;42.018;23.670;2023-03-13T05:23:08;91856.53;;;-3.09;82.18
44481;BME280;30184;42.018;23.670;2023-03-13T05:26:00;91884.47;;;-2.99;82.41
44481;BME280;30184;42.018;23.670;2023-03-13T05:29:02;91879.22;;;-2.96;82.74
44481;BME280;30184;42.018;23.670;2023-03-13T05:31:52;91830.72;;;-3.24;82.75
44481;BME280;30184;42.018;23.670;2023-03-13T05:34:37;91878.34;;;-2.88;82.71
44481;BME280;30184;42.018;23.670;2023-03-13T05:37:32;91841.69;;;-3.10;82.62
44481;BME280;30184;42.018;23.670;2023-03-13T05:40:27;91887.72;;;-2.78;82.92
44481;BME280;30184;42.018;23.670;2023-03-13T05:43:17;91845.66;;;-3.04;82.81
44481;BME280;30184;42.018;23.670;2023-03-13T05:46:10;91897.75;;;-2.72;82.52
44481;BME280;30184;42.018;23.670;2023-03-13T05:49:11;91884.19;;;-2.67;82.65
44481;BME280;30184;42.018;23.670;2023-03-13T05:52:01;91888.94;;;-2.60;82.40
44481;BME280;30184;42.018;23.670;2023-03-13T05:55:06;91885.25;;;-2.55;82.37
44481;BME280;30184;42.018;23.670;2023-03-13T05:57:44;91893.28;;;-2.68;82.30
44481;BME280;30184;42.018;23.670;2023-03-13T06:00:37;91899.97;;;-2.58;82.32
44481;BME280;30184;42.018;23.670;2023-03-13T06:03:33;91902.59;;;-2.46;82.41
44481;BME280;30184;42.018;23.670;2023-03-13T06:06:03;91905.19;;;-2.34;82.30
44481;BME280;30184;42.018;23.670;2023-03-13T06:08:47;91906.31;;;-2.19;82.45
44481;BME280;30184;42.018;23.670;2023-03-13T06:11:16;91897.31;;;-1.99;82.01
44481;BME280;30184;42.018;23.670;2023-03-13T06:13:46;91827.78;;;-2.32;81.41
44481;BME280;30184;42.018;23.670;2023-03-13T06:16:23;91895.56;;;-1.60;80.07
44481;BME280;30184;42.018;23.670;2023-03-13T06:18:57;91818.88;;;-1.89;79.96
44481;BME280;30184;42.018;23.670;2023-03-13T06:21:27;91893.38;;;-1.19;78.09
44481;BME280;30184;42.018;23.670;2023-03-13T06:23:58;91906.03;;;-0.97;77.96
44481;BME280;30184;42.018;23.670;2023-03-13T06:26:27;91890.06;;;-0.78;77.24
44481;BME280;30184;42.018;23.670;2023-03-13T06:28:57;91885.84;;;-0.59;76.21
44481;BME280;30184;42.018;23.670;2023-03-13T06:31:26;91853.38;;;-0.65;74.49
44481;BME280;30184;42.018;23.670;2023-03-13T06:33:56;91883.53;;;-0.19;74.68
44481;BME280;30184;42.018;23.670;2023-03-13T06:36:26;91886.56;;;0.03;72.91
44481;BME280;30184;42.018;23.670;2023-03-13T06:38:55;91874.63;;;0.19;72.55
44481;BME280;30184;42.018;23.670;2023-03-13T06:41:25;91849.53;;;0.24;70.38
44481;BME280;30184;42.018;23.670;2023-03-13T06:43:55;91723.56;;;-0.42;70.08
44481;BME280;30184;42.018;23.670;2023-03-13T06:46:25;91877.44;;;0.79;70.40
44481;BME280;30184;42.018;23.670;2023-03-13T06:48:54;91862.03;;;0.99;70.16
44481;BME280;30184;42.018;23.670;2023-03-13T06:51:24;91893.63;;;1.20;66.99
44481;BME280;30184;42.018;23.670;2023-03-13T06:53:54;91866.34;;;1.40;66.99
44481;BME280;30184;42.018;23.670;2023-03-13T06:56:23;91868.13;;;1.63;67.63
44481;BME280;30184;42.018;23.670;2023-03-13T06:58:55;91863.78;;;1.84;66.63
44481;BME280;30184;42.018;23.670;2023-03-13T07:01:26;91871.97;;;2.02;64.85
44481;BME280;30184;42.018;23.670;2023-03-13T07:03:56;91829.47;;;1.97;64.82
44481;BME280;30184;42.018;23.670;2023-03-13T07:06:25;91860.78;;;2.37;64.16
44481;BME280;30184;42.018;23.670;2023-03-13T07:08:54;91890.47;;;2.66;63.25
44481;BME280;30184;42.018;23.670;2023-03-13T07:11:24;91859.19;;;2.84;62.33
44481;BME280;30184;42.018;23.670;2023-03-13T07:13:55;91854.34;;;3.04;62.08
44481;BME280;30184;42.018;23.670;2023-03-13T07:16:42;91784.91;;;2.77;60.53
44481;BME280;30184;42.018;23.670;2023-03-13T07:19:11;91851.03;;;3.35;58.63
44481;BME280;30184;42.018;23.670;2023-03-13T07:21:42;91859.53;;;3.62;58.93
44481;BME280;30184;42.018;23.670;2023-03-13T07:24:11;91848.88;;;3.83;58.28
44481;BME280;30184;42.018;23.670;2023-03-13T07:26:41;91858.09;;;3.93;56.65
44481;BME280;30184;42.018;23.670;2023-03-13T07:29:26;91894.97;;;4.10;55.54
44481;BME280;30184;42.018;23.670;2023-03-13T07:31:55;91863.16;;;4.23;53.09
44481;BME280;30184;42.018;23.670;2023-03-13T07:34:24;91848.94;;;4.36;51.90
44481;BME280;30184;42.018;23.670;2023-03-13T07:36:54;91843.59;;;4.54;52.14
44481;BME280;30184;42.018;23.670;2023-03-13T07:39:23;91841.25;;;4.77;52.55
44481;BME280;30184;42.018;23.670;2023-03-13T07:41:53;91836.22;;;5.01;52.46
44481;BME280;30184;42.018;23.670;2023-03-13T07:44:22;91830.03;;;5.18;51.21
44481;BME280;30184;42.018;23.670;2023-03-13T07:46:52;91833.44;;;5.36;50.20
44481;BME280;30184;42.018;23.670;2023-03-13T07:49:21;91833.00;;;5.52;48.48
44481;BME280;30184;42.018;23.670;2023-03-13T07:51:51;91803.47;;;5.34;49.31
44481;BME280;30184;42.018;23.670;2023-03-13T07:54:20;91794.53;;;5.48;48.89
44481;BME280;30184;42.018;23.670;2023-03-13T07:56:49;91830.13;;;5.87;47.85
44481;BME280;30184;42.018;23.670;2023-03-13T07:59:19;91820.03;;;6.06;47.40
44481;BME280;30184;42.018;23.670;2023-03-13T08:01:48;91809.56;;;6.18;46.48
44481;BME280;30184;42.018;23.670;2023-03-13T08:04:18;91800.34;;;6.16;45.55
44481;BME280;30184;42.018;23.670;2023-03-13T08:06:48;91799.50;;;6.29;46.32
44481;BME280;30184;42.018;23.670;2023-03-13T08:09:18;91813.06;;;6.12;44.76
44481;BME280;30184;42.018;23.670;2023-03-13T08:11:47;91797.13;;;6.31;45.34
44481;BME280;30184;42.018;23.670;2023-03-13T08:14:17;91816.75;;;6.39;44.49
44481;BME280;30184;42.018;23.670;2023-03-13T08:16:46;91746.53;;;6.09;44.22
44481;BME280;30184;42.018;23.670;2023-03-13T08:19:16;91796.91;;;6.60;44.09
44481;BME280;30184;42.018;23.670;2023-03-13T08:21:49;91792.94;;;6.75;43.98
44481;BME280;30184;42.018;23.670;2023-03-13T08:24:18;91793.25;;;6.84;43.75
44481;BME280;30184;42.018;23.670;2023-03-13T08:26:47;91790.19;;;6.79;42.64
44481;BME280;30184;42.018;23.670;2023-03-13T08:29:17;91788.66;;;6.78;42.67
44481;BME280;30184;42.018;23.670;2023-03-13T08:31:47;91774.88;;;6.68;43.17
44481;BME280;30184;42.018;23.670;2023-03-13T08:34:18;91781.13;;;6.99;42.62
44481;BME280;30184;42.018;23.670;2023-03-13T08:36:49;91785.63;;;7.13;42.33
44481;BME280;30184;42.018;23.670;2023-03-13T08:39:20;91792.81;;;7.23;41.70
44481;BME280;30184;42.018;23.670;2023-03-13T08:41:49;91785.25;;;7.45;43.17
44481;BME280;30184;42.018;23.670;2023-03-13T08:44:18;91776.13;;;7.66;43.05
44481;BME280;30184;42.018;23.670;2023-03-13T08:46:48;91778.59;;;7.83;42.30
44481;BME280;30184;42.018;23.670;2023-03-13T08:49:18;91806.66;;;7.90;41.07
44481;BME280;30184;42.018;23.670;2023-03-13T08:51:49;91781.84;;;7.98;41.26
44481;BME280;30184;42.018;23.670;2023-03-13T08:54:18;91776.94;;;7.90;40.67
44481;BME280;30184;42.018;23.670;2023-03-13T08:56:47;91764.09;;;7.70;39.93
44481;BME280;30184;42.018;23.670;2023-03-13T08:59:17;91761.22;;;7.84;41.43
44481;BME280;30184;42.018;23.670;2023-03-13T09:01:46;91770.34;;;7.94;41.12
44481;BME280;30184;42.018;23.670;2023-03-13T09:04:16;91797.91;;;8.09;40.27
44481;BME280;30184;42.018;23.670;2023-03-13T09:06:45;91763.16;;;8.11;40.22
44481;BME280;30184;42.018;23.670;2023-03-13T09:09:16;91766.06;;;8.23;40.13
44481;BME280;30184;42.018;23.670;2023-03-13T09:11:47;91740.88;;;8.03;40.23
44481;BME280;30184;42.018;23.670;2023-03-13T09:14:16;91760.22;;;8.25;39.24
44481;BME280;30184;42.018;23.670;2023-03-13T09:16:46;91752.41;;;8.31;40.33
44481;BME280;30184;42.018;23.670;2023-03-13T09:19:15;91749.94;;;8.43;39.79
44481;BME280;30184;42.018;23.670;2023-03-13T09:21:44;91754.88;;;8.48;40.08
44481;BME280;30184;42.018;23.670;2023-03-13T09:24:17;91757.03;;;8.57;39.67
44481;BME280;30184;42.018;23.670;2023-03-13T09:26:46;91746.94;;;8.61;39.81
44481;BME280;30184;42.018;23.670;2023-03-13T09:29:27;91773.78;;;8.72;39.38
44481;BME280;30184;42.018;23.670;2023-03-13T09:31:56;91747.84;;;8.74;39.52
44481;BME280;30184;42.018;23.670;2023-03-13T09:34:26;91748.81;;;8.87;39.67
44481;BME280;30184;42.018;23.670;2023-03-13T09:36:55;91725.69;;;8.83;38.63
44481;BME280;30184;42.018;23.670;2023-03-13T09:39:26;91751.03;;;9.12;39.26
44481;BME280;30184;42.018;23.670;2023-03-13T09:42:01;91740.94;;;9.16;38.82
44481;BME280;30184;42.018;23.670;2023-03-13T09:44:40;91737.53;;;9.32;39.45
44481;BME280;30184;42.018;23.670;2023-03-13T09:47:17;91744.31;;;9.40;39.18
44481;BME280;30184;42.018;23.670;2023-03-13T09:49:51;91638.00;;;8.80;38.04
44481;BME280;30184;42.018;23.670;2023-03-13T09:52:23;91720.59;;;9.64;37.87
44481;BME280;30184;42.018;23.670;2023-03-13T09:54:58;91729.06;;;9.66;38.35
44481;BME280;30184;42.018;23.670;2023-03-13T09:57:32;91720.00;;;9.56;36.93
44481;BME280;30184;42.018;23.670;2023-03-13T10:00:07;91793.91;;;9.57;37.09
44481;BME280;30184;42.018;23.670;2023-03-13T10:02:42;91732.84;;;9.52;36.93
44481;BME280;30184;42.018;23.670;2023-03-13T10:05:16;91725.31;;;9.44;37.24
44481;BME280;30184;42.018;23.670;2023-03-13T10:07:48;91721.72;;;9.47;37.52
44481;BME280;30184;42.018;23.670;2023-03-13T10:10:26;91717.69;;;9.55;37.11
44481;BME280;30184;42.018;23.670;2023-03-13T10:13:14;91731.31;;;9.71;37.35
44481;BME280;30184;42.018;23.670;2023-03-13T10:15:49;91718.63;;;9.84;36.64
44481;BME280;30184;42.018;23.670;2023-03-13T10:18:20;91719.91;;;9.80;37.13
44481;BME280;30184;42.018;23.670;2023-03-13T10:20:52;91731.50;;;9.80;36.24
44481;BME280;30184;42.018;23.670;2023-03-13T10:23:27;91704.06;;;9.78;35.82
44481;BME280;30184;42.018;23.670;2023-03-13T10:25:59;91734.47;;;9.86;36.13
44481;BME280;30184;42.018;23.670;2023-03-13T10:28:29;91725.34;;;9.96;36.30
44481;BME280;30184;42.018;23.670;2023-03-13T10:31:03;91607.78;;;9.38;35.30
44481;BME280;30184;42.018;23.670;2023-03-13T10:33:36;91691.69;;;9.93;35.12
44481;BME280;30184;42.018;23.670;2023-03-13T10:36:07;91671.19;;;9.76;34.71
44481;BME280;30184;42.018;23.670;2023-03-13T10:38:46;91684.50;;;9.87;35.25
44481;BME280;30184;42.018;23.670;2023-03-13T10:41:24;91673.72;;;9.83;34.81
44481;BME280;30184;42.018;23.670;2023-03-13T10:43:58;91680.53;;;9.91;35.24
44481;BME280;30184;42.018;23.670;2023-03-13T10:46:30;91673.06;;;10.11;36.83
44481;BME280;30184;42.018;23.670;2023-03-13T10:49:01;91663.50;;;10.07;34.73
44481;BME280;30184;42.018;23.670;2023-03-13T10:51:36;91682.72;;;10.13;34.76
44481;BME280;30184;42.018;23.670;2023-03-13T10:54:18;91605.63;;;9.65;35.45
44481;BME280;30184;42.018;23.670;2023-03-13T10:57:06;91660.06;;;10.23;34.24
44481;BME280;30184;42.018;23.670;2023-03-13T10:59:40;91647.09;;;10.30;34.87
44481;BME280;30184;42.018;23.670;2023-03-13T11:02:22;91642.56;;;10.40;33.92
44481;BME280;30184;42.018;23.670;2023-03-13T11:04:53;91620.38;;;10.29;34.30
44481;BME280;30184;42.018;23.670;2023-03-13T11:07:29;91625.00;;;10.61;36.26
44481;BME280;30184;42.018;23.670;2023-03-13T11:10:05;91624.63;;;10.75;34.25
44481;BME280;30184;42.018;23.670;2023-03-13T11:12:47;91639.78;;;10.89;34.02
44481;BME280;30184;42.018;23.670;2023-03-13T11:15:19;91556.41;;;10.60;33.61
44481;BME280;30184;42.018;23.670;2023-03-13T11:17:56;91609.53;;;11.03;33.65
44481;BME280;30184;42.018;23.670;2023-03-13T11:20:27;91611.09;;;11.29;33.54
44481;BME280;30184;42.018;23.670;2023-03-13T11:23:13;91611.09;;;11.42;33.46
44481;BME280;30184;42.018;23.670;2023-03-13T11:25:52;91594.03;;;11.41;32.69
44481;BME280;30184;42.018;23.670;2023-03-13T11:28:44;91581.75;;;11.37;32.02
44481;BME280;30184;42.018;23.670;2023-03-13T11:31:21;91582.41;;;11.41;32.80
44481;BME280;30184;42.018;23.670;2023-03-13T11:33:55;91513.59;;;11.06;32.95
44481;BME280;30184;42.018;23.670;2023-03-13T11:36:33;91585.03;;;11.44;32.04
44481;BME280;30184;42.018;23.670;2023-03-13T11:39:16;91567.53;;;11.45;33.07
44481;BME280;30184;42.018;23.670;2023-03-13T11:41:58;91563.06;;;11.51;32.28
44481;BME280;30184;42.018;23.670;2023-03-13T11:44:42;91567.75;;;11.64;32.17
44481;BME280;30184;42.018;23.670;2023-03-13T11:47:40;91562.22;;;11.80;32.46
44481;BME280;30184;42.018;23.670;2023-03-13T11:50:29;91436.59;;;11.00;32.32
44481;BME280;30184;42.018;23.670;2023-03-13T11:53:12;91552.97;;;11.90;32.15
44481;BME280;30184;42.018;23.670;2023-03-13T11:55:58;91554.06;;;11.80;32.03
44481;BME280;30184;42.018;23.670;2023-03-13T11:58:59;91548.19;;;11.94;32.16
44481;BME280;30184;42.018;23.670;2023-03-13T12:01:34;91573.84;;;11.93;32.33
44481;BME280;30184;42.018;23.670;2023-03-13T12:04:13;91498.38;;;11.59;31.95
44481;BME280;30184;42.018;23.670;2023-03-13T12:06:50;91548.38;;;11.87;31.53
44481;BME280;30184;42.018;23.670;2023-03-13T12:09:25;91536.88;;;11.83;31.74
44481;BME280;30184;42.018;23.670;2023-03-13T12:11:59;91533.41;;;11.82;31.63
44481;BME280;30184;42.018;23.670;2023-03-13T12:14:32;91531.31;;;11.86;31.78
44481;BME280;30184;42.018;23.670;2023-03-13T12:17:09;91503.94;;;11.81;31.90
44481;BME280;30184;42.018;23.670;2023-03-13T12:19:44;91539.78;;;11.88;30.68
44481;BME280;30184;42.018;23.670;2023-03-13T12:22:18;91499.47;;;11.74;31.60
44481;BME280;30184;42.018;23.670;2023-03-13T12:24:55;91502.41;;;11.80;31.78
44481;BME280;30184;42.018;23.670;2023-03-13T12:27:30;91526.50;;;12.03;31.85
44481;BME280;30184;42.018;23.670;2023-03-13T12:30:05;91516.50;;;12.00;31.66
44481;BME280;30184;42.018;23.670;2023-03-13T12:32:58;91498.97;;;12.14;31.20
44481;BME280;30184;42.018;23.670;2023-03-13T12:35:30;91494.31;;;12.02;31.91
44481;BME280;30184;42.018;23.670;2023-03-13T12:38:04;91512.31;;;12.21;31.30
44481;BME280;30184;42.018;23.670;2023-03-13T12:40:40;91508.50;;;12.18;30.96
44481;BME280;30184;42.018;23.670;2023-03-13T12:43:17;91532.31;;;12.27;31.08
44481;BME280;30184;42.018;23.670;2023-03-13T12:46:00;91481.81;;;12.04;31.37
44481;BME280;30184;42.018;23.670;2023-03-13T12:48:45;91481.59;;;11.99;32.28
44481;BME280;30184;42.018;23.670;2023-03-13T12:51:33;91495.19;;;11.99;32.05
44481;BME280;30184;42.018;23.670;2023-03-13T12:54:20;91516.91;;;12.11;31.72
44481;BME280;30184;42.018;23.670;2023-03-13T12:57:03;91503.22;;;12.02;31.60
44481;BME280;30184;42.018;23.670;2023-03-13T12:59:38;91504.53;;;11.98;31.34
44481;BME280;30184;42.018;23.670;2023-03-13T13:02:15;91513.88;;;11.96;30.70
44481;BME280;30184;42.018;23.670;2023-03-13T13:04:49;91452.41;;;11.52;31.29
44481;BME280;30184;42.018;23.670;2023-03-13T13:07:25;91510.97;;;12.04;32.69
44481;BME280;30184;42.018;23.670;2023-03-13T13:10:02;91513.97;;;12.06;32.34
44481;BME280;30184;42.018;23.670;2023-03-13T13:12:32;91509.53;;;11.99;32.24
44481;BME280;30184;42.018;23.670;2023-03-13T13:15:13;91521.63;;;11.98;32.36
44481;BME280;30184;42.018;23.670;2023-03-13T13:18:00;91509.88;;;11.88;32.80
44481;BME280;30184;42.018;23.670;2023-03-13T13:20:50;91523.72;;;11.94;32.02
44481;BME280;30184;42.018;23.670;2023-03-13T13:23:40;91516.41;;;11.91;32.06
44481;BME280;30184;42.018;23.670;2023-03-13T13:26:47;91540.44;;;11.92;32.81
44481;BME280;30184;42.018;23.670;2023-03-13T13:32:43;91451.78;;;11.35;32.16
44481;BME280;30184;42.018;23.670;2023-03-13T13:35:28;91498.25;;;11.88;31.84
44481;BME280;30184;42.018;23.670;2023-03-13T13:38:21;91488.81;;;11.80;31.42